createdAt,value
2022-10-02T00:00:37.403Z,99618.72
2022-10-02T00:03:26.481Z,99611.91
2022-10-02T00:06:00.522Z,99614.69
2022-10-02T00:08:33.972Z,99621.03
2022-10-02T00:11:19.717Z,99624.03
2022-10-02T00:13:59.312Z,99630.81
2022-10-02T00:16:34.080Z,99629.66
2022-10-02T00:19:02.221Z,99633.81
2022-10-02T00:21:52.132Z,99637.00
2022-10-02T00:24:52.474Z,99641.31
2022-10-02T00:27:37.866Z,99641.34
2022-10-02T00:30:06.199Z,99638.91
2022-10-02T00:32:36.550Z,99654.75
2022-10-02T00:35:22.247Z,99648.84
2022-10-02T00:38:01.721Z,99648.25
2022-10-02T00:40:56.940Z,99661.69
2022-10-02T00:43:45.867Z,99656.16
2022-10-02T00:46:41.519Z,99657.41
2022-10-02T00:49:21.261Z,99660.22
2022-10-02T00:52:04.829Z,99658.72
2022-10-02T00:54:51.117Z,99659.66
2022-10-02T00:57:43.028Z,99659.50
2022-10-02T01:00:14.793Z,99661.12
2022-10-02T01:03:03.387Z,99662.09
2022-10-02T01:05:31.206Z,99668.72
2022-10-02T01:07:58.673Z,99666.09
2022-10-02T01:10:26.615Z,99666.78
2022-10-02T01:12:55.996Z,99665.91
2022-10-02T01:15:29.388Z,99668.59
2022-10-02T01:17:56.966Z,99677.81
2022-10-02T01:20:42.808Z,99677.88
2022-10-02T01:23:51.935Z,99692.72
2022-10-02T01:26:19.227Z,99687.16
2022-10-02T01:28:46.848Z,99689.34
2022-10-02T01:31:16.083Z,99699.47
2022-10-02T01:33:44.889Z,99702.63
2022-10-02T01:36:13.776Z,99718.69
2022-10-02T01:38:42.040Z,99724.47
2022-10-02T01:41:12.786Z,99720.97
2022-10-02T01:43:43.295Z,99719.16
2022-10-02T01:46:36.432Z,99725.06
2022-10-02T01:49:10.172Z,99734.09
2022-10-02T01:51:55.600Z,99740.88
2022-10-02T01:54:54.018Z,99746.97
2022-10-02T01:57:47.190Z,99750.13
2022-10-02T02:00:19.816Z,99763.25
2022-10-02T02:03:07.777Z,99772.22
2022-10-02T02:05:44.289Z,99770.44
2022-10-02T02:08:19.807Z,99778.22
2022-10-02T02:11:01.260Z,99782.72
2022-10-02T02:13:38.611Z,99786.00
2022-10-02T02:16:32.424Z,99786.44
2022-10-02T02:19:08.249Z,99783.66
2022-10-02T02:21:40.511Z,99783.66
2022-10-02T02:24:15.868Z,99778.41
2022-10-02T02:26:45.258Z,99783.81
2022-10-02T02:29:13.566Z,99784.59
2022-10-02T02:31:48.141Z,99786.03
2022-10-02T02:34:20.170Z,99785.63
2022-10-02T02:36:49.515Z,99785.78
2022-10-02T02:39:22.804Z,99784.72
2022-10-02T02:41:55.027Z,99791.75
2022-10-02T02:44:27.717Z,99789.66
2022-10-02T02:47:05.117Z,99799.12
2022-10-02T02:50:08.321Z,99795.25
2022-10-02T02:52:54.189Z,99799.03
2022-10-02T02:55:45.176Z,99812.06
2022-10-02T02:58:29.841Z,99810.06
2022-10-02T03:00:57.537Z,99807.16
2022-10-02T03:03:25.223Z,99813.97
2022-10-02T03:06:04.667Z,99814.12
2022-10-02T03:08:35.276Z,99819.94
2022-10-02T03:11:17.633Z,99819.94
2022-10-02T03:14:03.481Z,99826.53
2022-10-02T03:17:03.363Z,99823.28
2022-10-02T03:19:48.112Z,99821.53
2022-10-02T03:22:31.012Z,99832.13
2022-10-02T03:25:15.412Z,99830.47
2022-10-02T03:27:48.064Z,99833.87
2022-10-02T03:30:20.573Z,99831.69
2022-10-02T03:32:48.912Z,99838.69
2022-10-02T03:35:17.241Z,99849.88
2022-10-02T03:37:49.000Z,99842.66
2022-10-02T03:40:16.640Z,99853.00
2022-10-02T03:42:43.938Z,99853.53
2022-10-02T03:45:19.526Z,99856.44
2022-10-02T03:47:54.982Z,99856.97
2022-10-02T03:50:22.689Z,99857.75
2022-10-02T03:52:52.187Z,99853.50
2022-10-02T03:55:34.561Z,99860.44
2022-10-02T03:58:05.180Z,99863.78
2022-10-02T04:00:37.019Z,99866.44
2022-10-02T04:03:14.422Z,99866.44
2022-10-02T04:06:02.092Z,99867.16
2022-10-02T04:08:34.692Z,99859.31
2022-10-02T04:11:01.803Z,99869.88
2022-10-02T04:13:34.150Z,99869.22
2022-10-02T04:16:06.462Z,99871.56
2022-10-02T04:18:47.748Z,99875.00
2022-10-02T04:21:54.553Z,99889.06
2022-10-02T04:24:29.867Z,99884.88
2022-10-02T04:27:23.759Z,99887.34
2022-10-02T04:30:12.920Z,99890.09
2022-10-02T04:32:40.584Z,99886.25
2022-10-02T04:35:22.066Z,99889.25
2022-10-02T04:38:02.410Z,99905.78
2022-10-02T04:40:50.453Z,99904.91
2022-10-02T04:43:53.565Z,99914.88
2022-10-02T04:46:58.754Z,99925.84
2022-10-02T04:50:04.058Z,99933.78
2022-10-02T04:52:49.192Z,99933.09
2022-10-02T04:55:36.494Z,99940.16
2022-10-02T04:58:31.535Z,99947.31
2022-10-02T05:01:40.974Z,99958.53
2022-10-02T05:04:32.988Z,99958.31
2022-10-02T05:07:13.055Z,99961.66
2022-10-02T05:10:08.414Z,99963.56
2022-10-02T05:12:54.068Z,99973.94
2022-10-02T05:16:03.048Z,99967.25
2022-10-02T05:18:59.350Z,99970.63
2022-10-02T05:22:17.437Z,99975.94
2022-10-02T05:25:08.052Z,99971.37
2022-10-02T05:28:19.896Z,99980.81
2022-10-02T05:31:14.273Z,99968.47
2022-10-02T05:34:09.227Z,99980.63
2022-10-02T05:36:58.007Z,99977.84
2022-10-02T05:39:31.591Z,99981.84
2022-10-02T05:42:11.215Z,99979.56
2022-10-02T05:44:41.764Z,99978.28
2022-10-02T05:47:25.179Z,99990.97
2022-10-02T05:50:17.108Z,99987.84
2022-10-02T05:52:55.832Z,99989.25
2022-10-02T05:55:32.887Z,99993.41
2022-10-02T05:58:08.167Z,100004.50
2022-10-02T06:00:43.442Z,99995.25
2022-10-02T06:03:31.156Z,100003.59
2022-10-02T06:06:11.039Z,100003.91
2022-10-02T06:08:58.416Z,100007.72
2022-10-02T06:11:30.386Z,100024.72
2022-10-02T06:14:02.466Z,100027.81
2022-10-02T06:16:50.317Z,100016.78
2022-10-02T06:19:24.848Z,100014.03
2022-10-02T06:21:59.835Z,100020.00
2022-10-02T06:24:35.973Z,100031.44
2022-10-02T06:27:10.918Z,100039.03
2022-10-02T06:29:45.685Z,100037.97
2022-10-02T06:32:22.559Z,100045.69
2022-10-02T06:34:50.641Z,100054.59
2022-10-02T06:37:28.473Z,100051.22
2022-10-02T06:40:09.177Z,100054.44
2022-10-02T06:42:44.652Z,100058.09
2022-10-02T06:45:18.083Z,100064.59
2022-10-02T06:47:57.844Z,100067.31
2022-10-02T06:50:44.141Z,100069.00
2022-10-02T06:53:23.771Z,100072.28
2022-10-02T06:56:25.105Z,100080.25
2022-10-02T06:59:05.725Z,100086.50
2022-10-02T07:01:57.272Z,100090.41
2022-10-02T07:04:30.651Z,100085.13
2022-10-02T07:07:20.533Z,100091.84
2022-10-02T07:10:23.458Z,100102.47
2022-10-02T07:13:12.624Z,100108.31
2022-10-02T07:16:06.839Z,100112.84
2022-10-02T07:18:49.267Z,100106.06
2022-10-02T07:21:55.789Z,100107.25
2022-10-02T07:24:49.445Z,100105.94
2022-10-02T07:27:38.335Z,100108.22
2022-10-02T07:30:11.195Z,100107.03
2022-10-02T07:32:38.380Z,100105.25
2022-10-02T07:35:36.720Z,100110.31
2022-10-02T07:38:44.696Z,100106.47
2022-10-02T07:41:38.448Z,100101.75
2022-10-02T07:44:36.876Z,100113.62
2022-10-02T07:47:13.012Z,100115.44
2022-10-02T07:49:47.155Z,100108.91
2022-10-02T07:52:20.624Z,100106.56
2022-10-02T07:55:03.046Z,100109.53
2022-10-02T07:57:42.774Z,100123.19
2022-10-02T08:00:20.719Z,100119.38
2022-10-02T08:03:08.603Z,100133.88
2022-10-02T08:05:46.227Z,100119.94
2022-10-02T08:08:30.095Z,100135.69
2022-10-02T08:11:07.840Z,100136.81
2022-10-02T08:13:50.562Z,100137.25
2022-10-02T08:16:22.596Z,100134.47
2022-10-02T08:18:56.905Z,100131.34
2022-10-02T08:21:25.631Z,100135.72
2022-10-02T08:24:24.100Z,100141.13
2022-10-02T08:26:56.009Z,100127.69
2022-10-02T08:29:23.498Z,100138.47
2022-10-02T08:31:53.709Z,100138.72
2022-10-02T08:34:23.566Z,100149.94
2022-10-02T08:37:24.336Z,100141.16
2022-10-02T08:40:16.098Z,100148.56
2022-10-02T08:43:21.432Z,100154.12
2022-10-02T08:46:21.852Z,100143.47
2022-10-02T08:49:24.804Z,100150.72
2022-10-02T08:51:58.745Z,100141.53
2022-10-02T08:54:45.204Z,100141.97
2022-10-02T08:57:29.694Z,100146.41
2022-10-02T09:00:07.611Z,100150.00
2022-10-02T09:02:53.225Z,100151.16
2022-10-02T09:06:12.008Z,100153.34
2022-10-02T09:09:00.910Z,100145.59
2022-10-02T09:11:45.017Z,100146.31
2022-10-02T09:14:34.702Z,100141.75
2022-10-02T09:17:19.931Z,100141.00
2022-10-02T09:19:49.844Z,100147.31
2022-10-02T09:22:32.564Z,100150.56
2022-10-02T09:25:16.970Z,100149.06
2022-10-02T09:28:06.409Z,100152.91
2022-10-02T09:31:11.560Z,100156.22
2022-10-02T09:33:41.935Z,100150.31
2022-10-02T09:36:37.758Z,100129.94
2022-10-02T09:39:31.032Z,100132.66
2022-10-02T09:42:27.472Z,100132.91
2022-10-02T09:45:03.755Z,100130.06
2022-10-02T09:48:00.893Z,100120.50
2022-10-02T09:51:06.867Z,100117.81
2022-10-02T09:53:48.984Z,100126.94
2022-10-02T09:56:39.554Z,100125.44
2022-10-02T09:59:31.644Z,100126.97
2022-10-02T10:02:25.443Z,100122.47
2022-10-02T10:05:09.050Z,100115.81
2022-10-02T10:07:52.258Z,100103.06
2022-10-02T10:10:47.944Z,100098.56
2022-10-02T10:13:52.796Z,100099.59
2022-10-02T10:16:45.410Z,100096.56
2022-10-02T10:19:34.095Z,100103.75
2022-10-02T10:22:20.601Z,100106.97
2022-10-02T10:25:10.577Z,100099.28
2022-10-02T10:28:06.021Z,100095.72
2022-10-02T10:31:02.166Z,100084.59
2022-10-02T10:33:40.007Z,100092.13
2022-10-02T10:37:04.093Z,100095.69
2022-10-02T10:39:52.759Z,100088.97
2022-10-02T10:43:07.884Z,100091.50
2022-10-02T10:45:52.018Z,100091.69
2022-10-02T10:48:47.115Z,100090.19
2022-10-02T10:51:36.117Z,100085.09
2022-10-02T10:54:08.482Z,100094.09
2022-10-02T10:56:40.257Z,100080.50
2022-10-02T10:59:29.518Z,100097.53
2022-10-02T11:02:25.132Z,100082.50
2022-10-02T11:05:30.137Z,100089.59
2022-10-02T11:08:35.919Z,100093.66
2022-10-02T11:11:09.896Z,100108.19
2022-10-02T11:13:37.344Z,100096.91
2022-10-02T11:16:32.373Z,100096.19
2022-10-02T11:19:05.932Z,100106.28
2022-10-02T11:22:12.880Z,100099.56
2022-10-02T11:25:12.505Z,100105.47
2022-10-02T11:28:22.237Z,100102.56
2022-10-02T11:31:08.718Z,100097.53
2022-10-02T11:33:48.837Z,100094.06
2022-10-02T11:36:43.776Z,100084.00
2022-10-02T11:39:45.828Z,100078.81
2022-10-02T11:42:35.355Z,100078.81
2022-10-02T11:45:14.902Z,100064.59
2022-10-02T11:48:09.181Z,100076.53
2022-10-02T11:50:48.774Z,100084.03
2022-10-02T11:53:24.812Z,100075.38
2022-10-02T11:56:31.055Z,100068.84
2022-10-02T11:59:18.590Z,100074.06
2022-10-02T12:02:43.328Z,100069.75
2022-10-02T12:05:13.646Z,100074.13
2022-10-02T12:08:10.082Z,100084.00
2022-10-02T12:10:48.218Z,100083.22
2022-10-02T12:13:25.583Z,100090.50
2022-10-02T12:16:24.032Z,100077.69
2022-10-02T12:19:14.107Z,100092.38
2022-10-02T12:22:06.412Z,100082.91
2022-10-02T12:25:02.895Z,100078.81
2022-10-02T12:27:43.540Z,100064.72
2022-10-02T12:30:25.746Z,100061.56
2022-10-02T12:33:08.106Z,100053.94
2022-10-02T12:35:40.743Z,100060.28
2022-10-02T12:38:26.639Z,100048.78
2022-10-02T12:41:08.829Z,100048.22
2022-10-02T12:43:58.159Z,100038.22
2022-10-02T12:46:53.258Z,100029.19
2022-10-02T12:49:28.384Z,100036.91
2022-10-02T12:52:21.245Z,100030.69
2022-10-02T12:54:56.367Z,100026.72
2022-10-02T12:57:51.645Z,100022.91
2022-10-02T13:00:49.501Z,100017.91
2022-10-02T13:03:35.804Z,100014.44
2022-10-02T13:06:24.760Z,100017.66
2022-10-02T13:09:03.057Z,100007.19
2022-10-02T13:11:56.131Z,100007.38
2022-10-02T13:14:44.876Z,100002.09
2022-10-02T13:17:30.077Z,100002.94
2022-10-02T13:20:12.177Z,100000.34
2022-10-02T13:22:49.998Z,99993.41
2022-10-02T13:25:42.696Z,100003.34
2022-10-02T13:28:32.141Z,99999.38
2022-10-02T13:31:29.018Z,99992.25
2022-10-02T13:34:12.944Z,99984.84
2022-10-02T13:37:05.134Z,99986.88
2022-10-02T13:39:58.327Z,99979.78
2022-10-02T13:42:41.058Z,99984.72
2022-10-02T13:45:15.911Z,99981.66
2022-10-02T13:47:59.480Z,99973.75
2022-10-02T13:50:59.600Z,99975.44
2022-10-02T13:53:32.847Z,99977.16
2022-10-02T13:56:26.397Z,99959.59
2022-10-02T13:59:13.526Z,99963.97
2022-10-02T14:01:55.233Z,99970.81
2022-10-02T14:04:47.499Z,99962.72
2022-10-02T14:07:33.446Z,99960.91
2022-10-02T14:10:23.839Z,99969.94
2022-10-02T14:13:12.711Z,99974.50
2022-10-02T14:16:07.288Z,99969.84
2022-10-02T14:18:50.266Z,99972.03
2022-10-02T14:21:27.273Z,99956.59
2022-10-02T14:24:22.880Z,99966.78
2022-10-02T14:27:12.856Z,99964.22
2022-10-02T14:29:58.971Z,99955.94
2022-10-02T14:32:39.869Z,99956.78
2022-10-02T14:35:47.297Z,99944.41
2022-10-02T14:38:43.265Z,99940.81
2022-10-02T14:41:33.119Z,99950.16
2022-10-02T14:44:11.565Z,99944.03
2022-10-02T14:47:01.323Z,99951.00
2022-10-02T14:49:32.071Z,99944.03
2022-10-02T14:52:11.171Z,99934.22
2022-10-02T14:54:47.744Z,99931.75
2022-10-02T14:57:38.992Z,99932.13
2022-10-02T15:00:21.528Z,99925.03
2022-10-02T15:03:19.116Z,99922.91
2022-10-02T15:06:01.457Z,99919.53
2022-10-02T15:08:34.268Z,99908.28
2022-10-02T15:11:03.349Z,99911.16
2022-10-02T15:13:41.294Z,99911.16
2022-10-02T15:16:40.582Z,99920.19
2022-10-02T15:19:23.563Z,99911.22
2022-10-02T15:22:03.999Z,99915.19
2022-10-02T15:24:43.901Z,99921.12
2022-10-02T15:27:23.918Z,99910.56
2022-10-02T15:30:11.924Z,99914.56
2022-10-02T15:32:55.745Z,99898.94
2022-10-02T15:35:56.872Z,99896.94
2022-10-02T15:38:55.666Z,99896.97
2022-10-02T15:41:48.486Z,99889.88
2022-10-02T15:44:24.531Z,99887.88
2022-10-02T15:46:57.727Z,99880.63
2022-10-02T15:49:35.072Z,99892.72
2022-10-02T15:52:27.987Z,99911.53
2022-10-02T15:55:20.759Z,99895.72
2022-10-02T15:58:10.758Z,99887.63
2022-10-02T16:01:03.367Z,99886.00
2022-10-02T16:03:31.932Z,99893.13
2022-10-02T16:06:06.443Z,99891.81
2022-10-02T16:08:46.161Z,99884.38
2022-10-02T16:11:47.051Z,99884.47
2022-10-02T16:14:26.779Z,99885.56
2022-10-02T16:17:06.364Z,99895.28
2022-10-02T16:19:55.305Z,99890.97
2022-10-02T16:22:51.371Z,99886.63
2022-10-02T16:25:47.231Z,99893.94
2022-10-02T16:28:17.385Z,99887.03
2022-10-02T16:30:45.828Z,99879.81
2022-10-02T16:33:19.778Z,99884.63
2022-10-02T16:36:06.228Z,99900.53
2022-10-02T16:38:42.954Z,99912.28
2022-10-02T16:41:17.655Z,99909.87
2022-10-02T16:44:28.123Z,99899.12
2022-10-02T16:47:05.485Z,99892.03
2022-10-02T16:49:43.224Z,99886.63
2022-10-02T16:52:17.160Z,99885.47
2022-10-02T16:54:49.182Z,99889.88
2022-10-02T16:57:34.998Z,99880.41
2022-10-02T17:00:16.354Z,99880.34
2022-10-02T17:02:50.403Z,99879.19
2022-10-02T17:05:49.580Z,99886.16
2022-10-02T17:08:27.872Z,99882.72
2022-10-02T17:11:14.204Z,99875.75
2022-10-02T17:13:45.685Z,99879.28
2022-10-02T17:16:21.629Z,99873.88
2022-10-02T17:18:56.512Z,99869.56
2022-10-02T17:21:44.561Z,99870.25
2022-10-02T17:24:16.605Z,99875.16
2022-10-02T17:27:00.491Z,99871.81
2022-10-02T17:29:46.160Z,99854.19
2022-10-02T17:32:33.501Z,99860.31
2022-10-02T17:35:01.468Z,99866.69
2022-10-02T17:37:57.882Z,99867.50
2022-10-02T17:40:40.087Z,99875.56
2022-10-02T17:43:31.367Z,99869.69
2022-10-02T17:46:17.348Z,99870.06
2022-10-02T17:49:17.028Z,99870.50
2022-10-02T17:52:23.428Z,99862.31
2022-10-02T17:55:22.936Z,99861.50
2022-10-02T17:58:00.491Z,99856.69
2022-10-02T18:00:30.891Z,99855.13
2022-10-02T18:03:18.065Z,99860.12
2022-10-02T18:05:46.200Z,99860.47
2022-10-02T18:08:47.638Z,99867.41
2022-10-02T18:11:47.468Z,99873.69
2022-10-02T18:14:42.053Z,99872.66
2022-10-02T18:17:20.827Z,99862.41
2022-10-02T18:19:59.706Z,99859.19
2022-10-02T18:22:29.876Z,99873.16
2022-10-02T18:24:57.352Z,99861.69
2022-10-02T18:27:55.844Z,99868.50
2022-10-02T18:30:25.007Z,99860.59
2022-10-02T18:33:25.959Z,99865.53
2022-10-02T18:36:05.795Z,99877.94
2022-10-02T18:39:00.195Z,99884.88
2022-10-02T18:41:44.675Z,99876.88
2022-10-02T18:44:49.641Z,99883.34
2022-10-02T18:47:36.838Z,99879.91
2022-10-02T18:50:12.848Z,99883.34
2022-10-02T18:52:55.156Z,99881.38
2022-10-02T18:55:34.733Z,99877.84
2022-10-02T18:58:21.401Z,99861.75
2022-10-02T19:01:42.858Z,99861.81
2022-10-02T19:04:27.421Z,99875.03
2022-10-02T19:07:08.704Z,99863.09
2022-10-02T19:09:36.373Z,99871.28
2022-10-02T19:12:22.745Z,99875.66
2022-10-02T19:14:55.075Z,99872.06
2022-10-02T19:17:24.023Z,99867.62
2022-10-02T19:19:56.148Z,99864.31
2022-10-02T19:22:27.702Z,99874.72
2022-10-02T19:25:23.992Z,99882.16
2022-10-02T19:27:55.952Z,99876.53
2022-10-02T19:30:26.296Z,99883.66
2022-10-02T19:32:56.097Z,99881.03
2022-10-02T19:35:40.602Z,99882.81
2022-10-02T19:38:13.666Z,99872.19
2022-10-02T19:40:41.540Z,99873.63
2022-10-02T19:43:11.538Z,99860.75
2022-10-02T19:45:40.931Z,99862.66
2022-10-02T19:48:10.368Z,99848.59
2022-10-02T19:51:01.237Z,99844.22
2022-10-02T19:53:38.851Z,99842.28
2022-10-02T19:56:24.265Z,99839.25
2022-10-02T19:58:58.590Z,99837.38
2022-10-02T20:01:33.119Z,99833.19
2022-10-02T20:04:02.605Z,99838.66
2022-10-02T20:06:34.984Z,99838.34
2022-10-02T20:09:12.867Z,99831.34
2022-10-02T20:11:43.497Z,99823.13
2022-10-02T20:14:22.795Z,99827.28
2022-10-02T20:17:08.904Z,99828.06
2022-10-02T20:19:45.221Z,99827.84
2022-10-02T20:22:31.165Z,99828.81
2022-10-02T20:25:00.321Z,99820.75
2022-10-02T20:27:43.433Z,99821.78
2022-10-02T20:30:14.236Z,99815.69
2022-10-02T20:32:54.179Z,99816.06
2022-10-02T20:35:30.456Z,99807.12
2022-10-02T20:37:59.901Z,99814.25
2022-10-02T20:40:31.437Z,99811.88
2022-10-02T20:43:19.039Z,99809.19
2022-10-02T20:46:07.505Z,99807.44
2022-10-02T20:49:10.162Z,99806.56
2022-10-02T20:51:43.383Z,99803.13
2022-10-02T20:54:30.380Z,99801.94
2022-10-02T20:57:04.009Z,99807.50
2022-10-02T20:59:40.167Z,99806.03
2022-10-02T21:02:34.785Z,99814.56
2022-10-02T21:05:06.996Z,99819.50
2022-10-02T21:07:57.534Z,99835.59
2022-10-02T21:10:54.778Z,99834.34
2022-10-02T21:13:45.655Z,99837.84
2022-10-02T21:16:31.485Z,99832.66
2022-10-02T21:19:15.743Z,99824.00
2022-10-02T21:22:11.123Z,99826.19
2022-10-02T21:25:02.215Z,99823.44
2022-10-02T21:28:01.991Z,99825.44
2022-10-02T21:30:56.169Z,99818.41
2022-10-02T21:33:50.322Z,99816.97
2022-10-02T21:36:33.851Z,99819.91
2022-10-02T21:39:25.436Z,99810.16
2022-10-02T21:41:52.876Z,99806.34
2022-10-02T21:44:48.787Z,99823.47
2022-10-02T21:47:45.208Z,99803.44
2022-10-02T21:50:54.171Z,99805.03
2022-10-02T21:53:46.325Z,99810.28
2022-10-02T21:56:25.582Z,99809.44
2022-10-02T21:59:11.944Z,99800.81
2022-10-02T22:02:07.830Z,99805.59
2022-10-02T22:05:03.425Z,99809.75
2022-10-02T22:07:45.350Z,99801.97
2022-10-02T22:10:23.575Z,99797.91
2022-10-02T22:13:18.953Z,99805.22
2022-10-02T22:15:59.036Z,99809.63
2022-10-02T22:18:48.548Z,99814.59
2022-10-02T22:21:40.819Z,99805.31
2022-10-02T22:24:37.486Z,99804.91
2022-10-02T22:27:33.842Z,99795.16
2022-10-02T22:30:01.347Z,99793.38
2022-10-02T22:33:12.231Z,99806.81
2022-10-02T22:36:07.119Z,99806.47
2022-10-02T22:38:40.902Z,99800.44
2022-10-02T22:41:17.588Z,99798.53
2022-10-02T22:43:49.934Z,99794.16
2022-10-02T22:46:47.598Z,99790.47
2022-10-02T22:49:20.579Z,99784.41
2022-10-02T22:52:05.993Z,99788.69
2022-10-02T22:54:51.295Z,99782.06
2022-10-02T22:57:31.203Z,99780.97
2022-10-02T23:00:12.676Z,99791.12
2022-10-02T23:02:49.199Z,99785.13
2022-10-02T23:05:44.130Z,99790.78
2022-10-02T23:08:22.493Z,99787.81
2022-10-02T23:10:53.500Z,99800.28
2022-10-02T23:13:29.182Z,99794.25
2022-10-02T23:16:06.721Z,99788.63
2022-10-02T23:19:01.567Z,99785.19
2022-10-02T23:21:45.819Z,99774.53
2022-10-02T23:24:28.559Z,99776.81
2022-10-02T23:27:02.248Z,99784.59
2022-10-02T23:30:05.014Z,99774.91
2022-10-02T23:33:01.596Z,99787.22
2022-10-02T23:35:46.767Z,99780.97
2022-10-02T23:38:37.625Z,99785.06
2022-10-02T23:41:37.472Z,99770.88
2022-10-02T23:44:20.103Z,99770.28
2022-10-02T23:46:50.311Z,99775.06
2022-10-02T23:49:31.706Z,99778.44
2022-10-02T23:52:09.411Z,99786.16
2022-10-02T23:55:21.388Z,99781.59
2022-10-02T23:58:03.776Z,99786.22
